Packard, Iowa
Current Conditions -  °F | °C
As of 9:55 PM on Sunday 23 Nov 2014 (Local Time) from KCCY Reporting Station
Overcast Overcast  
Wind Chill: 27°   Ceiling: 900
Heat Index: 37°   Visibility: 10mi
Dew Point: 36°   Wind: 20mph
Humidity: 93%   Direction: 320°NW
Pressure: 29.3"   Gusts: 31mph
Location:  42.8335°N, 92.6455°W
Report Text: KCCY 240355Z AUTO 32017G27KT 10SM OVC009 03/02 A2930 RMK AO2
Loading
Personal Weather Stations






























Interactive Weather Map New forecast layout! Learn more

10-Day Weather Forecast

Advertisements
Track Severe Weather on mobile